This is the latest recevied weather packets stored in our database for station/object W5HKR. If no packets are shown the sender has not sent any weather packets the latest 1 day(s).
| Time | Temp. | Humidity | Pressure | Rain* | Wind** | Luminosity | Snow |
|---|---|---|---|---|---|---|---|
| 1778049805 | 24.44° C | 88% | 980.4 hPa | 0 mm | - | - | - |
| 1778049505 | 18.33° C | 91% | 990.6 hPa | 0 mm | - | - | - |
| 1778049204 | 24.44° C | 88% | 980.5 hPa | 0 mm | - | - | - |
| 1778048878 | 18.33° C | 91% | 990.6 hPa | 0 mm | - | - | - |
| 1778048305 | 18.33° C | 91% | 990.6 hPa | 0 mm | - | - | - |
| 1778047796 | 24.44° C | 88% | 980.3 hPa | 0 mm | - | - | - |
| 1778047105 | 24.44° C | 88% | 980.1 hPa | 0 mm | - | - | - |
| 1778046805 | 18.33° C | 91% | 990.6 hPa | 0 mm | - | - | - |
| 1778046716 | 24.44° C | 88% | 980.4 hPa | 0 mm | - | - | - |
| 1778046505 | 24.44° C | 88% | 980.4 hPa | 0 mm | - | - | - |
| 1778045608 | 24.44° C | 87% | 980.6 hPa | 0 mm | - | - | - |
| 1778044707 | 18.33° C | 91% | 990.6 hPa | 0 mm | - | - | - |
| 1778044557 | 18.33° C | 91% | 990.6 hPa | 0 mm | - | - | - |
| 1778043806 | 18.33° C | 91% | 990.6 hPa | 0 mm | - | - | - |
| 1778043475 | 24.44° C | 88% | 980.4 hPa | 0 mm | - | - | - |
| 1778042905 | 18.33° C | 91% | 990.6 hPa | 0 mm | - | - | - |
| 1778042605 | 18.33° C | 91% | 990.6 hPa | 0 mm | - | - | - |
| 1778042306 | 24.44° C | 88% | 980.7 hPa | 0 mm | - | - | - |
| 1778042005 | 24.44° C | 88% | 980.4 hPa | 0 mm | - | - | - |
| 1778041404 | 24.44° C | 88% | 980.5 hPa | 0 mm | - | - | - |
| 1778041317 | 18.33° C | 91% | 990.6 hPa | 0 mm | - | - | - |
| 1778041106 | 18.33° C | 91% | 990.6 hPa | 0 mm | - | - | - |
| 1778040806 | 24.44° C | 89% | 980.3 hPa | 0 mm | - | - | - |
| 1778040237 | 18.33° C | 91% | 990.6 hPa | 0 mm | - | - | - |
| 1778040206 | 18.33° C | 91% | 990.6 hPa | 0 mm | - | - | - |
* Rain latest hour (hover to see other rain measurements)
** Current wind speed in m/s (hover to see current wind gust speed)